sensor_id;sensor_type;location;lat;lon;timestamp;P1;durP1;ratioP1;P2;durP2;ratioP2
14139;SDS011;7150;53.514;9.988;2023-11-19T00:00:34;5.70;;;4.00;;
14139;SDS011;7150;53.514;9.988;2023-11-19T00:03:00;4.17;;;3.50;;
14139;SDS011;7150;53.514;9.988;2023-11-19T00:05:26;5.80;;;3.93;;
14139;SDS011;7150;53.514;9.988;2023-11-19T00:07:52;5.43;;;3.67;;
14139;SDS011;7150;53.514;9.988;2023-11-19T00:10:18;5.73;;;3.63;;
14139;SDS011;7150;53.514;9.988;2023-11-19T00:12:44;4.80;;;3.73;;
14139;SDS011;7150;53.514;9.988;2023-11-19T00:15:11;6.47;;;4.17;;
14139;SDS011;7150;53.514;9.988;2023-11-19T00:17:38;5.03;;;3.80;;
14139;SDS011;7150;53.514;9.988;2023-11-19T00:20:13;4.47;;;3.60;;
14139;SDS011;7150;53.514;9.988;2023-11-19T00:22:47;4.70;;;3.60;;
14139;SDS011;7150;53.514;9.988;2023-11-19T00:25:15;4.70;;;3.40;;
14139;SDS011;7150;53.514;9.988;2023-11-19T00:27:44;4.67;;;3.23;;
14139;SDS011;7150;53.514;9.988;2023-11-19T00:30:09;4.50;;;3.30;;
14139;SDS011;7150;53.514;9.988;2023-11-19T00:32:35;3.70;;;3.20;;
14139;SDS011;7150;53.514;9.988;2023-11-19T00:35:03;4.00;;;3.07;;
14139;SDS011;7150;53.514;9.988;2023-11-19T00:37:29;5.13;;;3.10;;
14139;SDS011;7150;53.514;9.988;2023-11-19T00:39:54;3.00;;;2.70;;
14139;SDS011;7150;53.514;9.988;2023-11-19T00:42:21;3.40;;;2.63;;
14139;SDS011;7150;53.514;9.988;2023-11-19T00:44:47;3.37;;;2.80;;
14139;SDS011;7150;53.514;9.988;2023-11-19T00:47:12;3.23;;;2.90;;
14139;SDS011;7150;53.514;9.988;2023-11-19T00:49:38;5.40;;;3.20;;
14139;SDS011;7150;53.514;9.988;2023-11-19T00:52:03;5.13;;;2.93;;
14139;SDS011;7150;53.514;9.988;2023-11-19T00:54:29;3.43;;;2.83;;
14139;SDS011;7150;53.514;9.988;2023-11-19T00:56:54;3.73;;;2.73;;
14139;SDS011;7150;53.514;9.988;2023-11-19T00:59:20;5.17;;;3.47;;
14139;SDS011;7150;53.514;9.988;2023-11-19T01:01:46;3.87;;;2.80;;
14139;SDS011;7150;53.514;9.988;2023-11-19T01:04:13;4.27;;;2.90;;
14139;SDS011;7150;53.514;9.988;2023-11-19T01:06:39;2.70;;;2.50;;
14139;SDS011;7150;53.514;9.988;2023-11-19T01:09:05;2.73;;;2.40;;
14139;SDS011;7150;53.514;9.988;2023-11-19T01:11:30;3.10;;;2.30;;
14139;SDS011;7150;53.514;9.988;2023-11-19T01:13:56;2.77;;;2.10;;
14139;SDS011;7150;53.514;9.988;2023-11-19T01:16:21;2.50;;;1.87;;
14139;SDS011;7150;53.514;9.988;2023-11-19T01:18:47;2.30;;;2.10;;
14139;SDS011;7150;53.514;9.988;2023-11-19T01:21:13;2.47;;;1.70;;
14139;SDS011;7150;53.514;9.988;2023-11-19T01:23:39;2.00;;;1.80;;
14139;SDS011;7150;53.514;9.988;2023-11-19T01:26:07;2.10;;;1.90;;
14139;SDS011;7150;53.514;9.988;2023-11-19T01:28:35;1.50;;;1.40;;
14139;SDS011;7150;53.514;9.988;2023-11-19T01:31:00;2.07;;;1.70;;
14139;SDS011;7150;53.514;9.988;2023-11-19T01:33:26;2.00;;;1.80;;
14139;SDS011;7150;53.514;9.988;2023-11-19T01:35:52;1.87;;;1.70;;
14139;SDS011;7150;53.514;9.988;2023-11-19T01:38:18;2.07;;;1.87;;
14139;SDS011;7150;53.514;9.988;2023-11-19T01:40:44;1.50;;;1.40;;
14139;SDS011;7150;53.514;9.988;2023-11-19T01:43:09;1.90;;;1.40;;
14139;SDS011;7150;53.514;9.988;2023-11-19T01:45:36;1.63;;;1.50;;
14139;SDS011;7150;53.514;9.988;2023-11-19T01:48:03;1.70;;;1.30;;
14139;SDS011;7150;53.514;9.988;2023-11-19T01:50:29;1.50;;;1.23;;
14139;SDS011;7150;53.514;9.988;2023-11-19T01:52:56;1.30;;;1.20;;
14139;SDS011;7150;53.514;9.988;2023-11-19T01:55:22;1.13;;;1.03;;
14139;SDS011;7150;53.514;9.988;2023-11-19T01:57:50;1.73;;;1.17;;
14139;SDS011;7150;53.514;9.988;2023-11-19T02:00:18;1.13;;;1.00;;
14139;SDS011;7150;53.514;9.988;2023-11-19T02:02:44;1.17;;;1.07;;
14139;SDS011;7150;53.514;9.988;2023-11-19T02:05:11;1.50;;;1.20;;
14139;SDS011;7150;53.514;9.988;2023-11-19T02:07:39;1.20;;;1.10;;
14139;SDS011;7150;53.514;9.988;2023-11-19T02:10:05;0.87;;;0.87;;
14139;SDS011;7150;53.514;9.988;2023-11-19T02:12:37;1.13;;;1.03;;
14139;SDS011;7150;53.514;9.988;2023-11-19T02:15:03;0.87;;;0.83;;
14139;SDS011;7150;53.514;9.988;2023-11-19T02:17:30;0.87;;;0.80;;
14139;SDS011;7150;53.514;9.988;2023-11-19T02:20:03;0.80;;;0.80;;
14139;SDS011;7150;53.514;9.988;2023-11-19T02:22:37;1.10;;;0.90;;
14139;SDS011;7150;53.514;9.988;2023-11-19T02:25:07;0.70;;;0.70;;
14139;SDS011;7150;53.514;9.988;2023-11-19T02:27:46;0.70;;;0.70;;
14139;SDS011;7150;53.514;9.988;2023-11-19T02:30:22;0.90;;;0.90;;
14139;SDS011;7150;53.514;9.988;2023-11-19T02:32:58;0.63;;;0.63;;
14139;SDS011;7150;53.514;9.988;2023-11-19T02:35:26;0.80;;;0.80;;
14139;SDS011;7150;53.514;9.988;2023-11-19T02:37:52;0.73;;;0.73;;
14139;SDS011;7150;53.514;9.988;2023-11-19T02:40:19;0.83;;;0.83;;
14139;SDS011;7150;53.514;9.988;2023-11-19T02:42:44;0.83;;;0.80;;
14139;SDS011;7150;53.514;9.988;2023-11-19T02:45:10;0.80;;;0.63;;
14139;SDS011;7150;53.514;9.988;2023-11-19T02:47:42;0.83;;;0.77;;
14139;SDS011;7150;53.514;9.988;2023-11-19T02:50:11;0.70;;;0.70;;
14139;SDS011;7150;53.514;9.988;2023-11-19T02:52:45;0.77;;;0.70;;
14139;SDS011;7150;53.514;9.988;2023-11-19T02:55:11;0.77;;;0.77;;
14139;SDS011;7150;53.514;9.988;2023-11-19T02:57:41;0.60;;;0.60;;
14139;SDS011;7150;53.514;9.988;2023-11-19T03:00:17;0.87;;;0.70;;
14139;SDS011;7150;53.514;9.988;2023-11-19T03:02:43;0.70;;;0.70;;
14139;SDS011;7150;53.514;9.988;2023-11-19T03:05:14;1.00;;;0.57;;
14139;SDS011;7150;53.514;9.988;2023-11-19T03:07:41;0.60;;;0.60;;
14139;SDS011;7150;53.514;9.988;2023-11-19T03:10:08;1.60;;;0.63;;
14139;SDS011;7150;53.514;9.988;2023-11-19T03:12:37;0.83;;;0.80;;
14139;SDS011;7150;53.514;9.988;2023-11-19T03:15:03;1.20;;;0.83;;
14139;SDS011;7150;53.514;9.988;2023-11-19T03:17:28;0.60;;;0.60;;
14139;SDS011;7150;53.514;9.988;2023-11-19T03:19:54;0.70;;;0.70;;
14139;SDS011;7150;53.514;9.988;2023-11-19T03:22:19;0.90;;;0.60;;
14139;SDS011;7150;53.514;9.988;2023-11-19T03:24:45;1.03;;;0.73;;
14139;SDS011;7150;53.514;9.988;2023-11-19T03:27:11;0.70;;;0.70;;
14139;SDS011;7150;53.514;9.988;2023-11-19T03:29:37;0.70;;;0.70;;
14139;SDS011;7150;53.514;9.988;2023-11-19T03:32:03;0.80;;;0.80;;
14139;SDS011;7150;53.514;9.988;2023-11-19T03:34:29;0.70;;;0.70;;
14139;SDS011;7150;53.514;9.988;2023-11-19T03:36:55;0.80;;;0.80;;
14139;SDS011;7150;53.514;9.988;2023-11-19T03:39:21;0.70;;;0.70;;
14139;SDS011;7150;53.514;9.988;2023-11-19T03:41:49;0.70;;;0.70;;
14139;SDS011;7150;53.514;9.988;2023-11-19T03:44:15;0.93;;;0.70;;
14139;SDS011;7150;53.514;9.988;2023-11-19T03:46:41;1.37;;;0.77;;
14139;SDS011;7150;53.514;9.988;2023-11-19T03:49:07;0.90;;;0.90;;
14139;SDS011;7150;53.514;9.988;2023-11-19T03:51:32;0.90;;;0.90;;
14139;SDS011;7150;53.514;9.988;2023-11-19T03:53:59;0.80;;;0.80;;
14139;SDS011;7150;53.514;9.988;2023-11-19T03:56:25;1.00;;;0.97;;
14139;SDS011;7150;53.514;9.988;2023-11-19T03:58:52;0.97;;;0.97;;
14139;SDS011;7150;53.514;9.988;2023-11-19T04:01:17;0.90;;;0.90;;
14139;SDS011;7150;53.514;9.988;2023-11-19T04:03:43;1.87;;;0.90;;
14139;SDS011;7150;53.514;9.988;2023-11-19T04:06:09;1.10;;;1.00;;
14139;SDS011;7150;53.514;9.988;2023-11-19T04:08:34;0.90;;;0.90;;
14139;SDS011;7150;53.514;9.988;2023-11-19T04:11:00;0.90;;;0.90;;
14139;SDS011;7150;53.514;9.988;2023-11-19T04:13:27;1.97;;;1.20;;
14139;SDS011;7150;53.514;9.988;2023-11-19T04:15:53;1.10;;;1.10;;
14139;SDS011;7150;53.514;9.988;2023-11-19T04:18:18;1.17;;;1.07;;
14139;SDS011;7150;53.514;9.988;2023-11-19T04:20:44;1.20;;;1.10;;
14139;SDS011;7150;53.514;9.988;2023-11-19T04:23:09;0.97;;;0.97;;
14139;SDS011;7150;53.514;9.988;2023-11-19T04:25:36;1.10;;;1.00;;
14139;SDS011;7150;53.514;9.988;2023-11-19T04:28:01;1.90;;;0.93;;
14139;SDS011;7150;53.514;9.988;2023-11-19T04:30:27;1.20;;;1.10;;
14139;SDS011;7150;53.514;9.988;2023-11-19T04:32:53;1.50;;;1.30;;
14139;SDS011;7150;53.514;9.988;2023-11-19T04:35:19;1.37;;;1.27;;
14139;SDS011;7150;53.514;9.988;2023-11-19T04:37:44;1.30;;;1.20;;
14139;SDS011;7150;53.514;9.988;2023-11-19T04:40:10;1.30;;;1.20;;
14139;SDS011;7150;53.514;9.988;2023-11-19T04:42:37;1.53;;;1.27;;
14139;SDS011;7150;53.514;9.988;2023-11-19T04:45:05;1.70;;;1.30;;
14139;SDS011;7150;53.514;9.988;2023-11-19T04:47:31;2.10;;;1.50;;
14139;SDS011;7150;53.514;9.988;2023-11-19T04:49:58;1.80;;;1.57;;
14139;SDS011;7150;53.514;9.988;2023-11-19T04:52:23;1.70;;;1.60;;
14139;SDS011;7150;53.514;9.988;2023-11-19T04:54:49;1.70;;;1.50;;
14139;SDS011;7150;53.514;9.988;2023-11-19T04:57:15;2.17;;;1.70;;
14139;SDS011;7150;53.514;9.988;2023-11-19T04:59:40;2.57;;;1.93;;
14139;SDS011;7150;53.514;9.988;2023-11-19T05:02:06;2.60;;;2.10;;
14139;SDS011;7150;53.514;9.988;2023-11-19T05:04:32;2.50;;;2.30;;
14139;SDS011;7150;53.514;9.988;2023-11-19T05:06:58;3.50;;;2.60;;
14139;SDS011;7150;53.514;9.988;2023-11-19T05:09:24;2.50;;;2.20;;
14139;SDS011;7150;53.514;9.988;2023-11-19T05:11:49;3.43;;;2.20;;
14139;SDS011;7150;53.514;9.988;2023-11-19T05:14:15;3.53;;;2.37;;
14139;SDS011;7150;53.514;9.988;2023-11-19T05:16:41;3.80;;;2.57;;
14139;SDS011;7150;53.514;9.988;2023-11-19T05:19:07;2.70;;;2.13;;
14139;SDS011;7150;53.514;9.988;2023-11-19T05:21:33;4.03;;;2.70;;
14139;SDS011;7150;53.514;9.988;2023-11-19T05:24:01;5.13;;;3.23;;
14139;SDS011;7150;53.514;9.988;2023-11-19T05:26:29;10.00;;;6.03;;
14139;SDS011;7150;53.514;9.988;2023-11-19T05:28:55;14.33;;;7.27;;
14139;SDS011;7150;53.514;9.988;2023-11-19T05:31:20;17.20;;;8.23;;
14139;SDS011;7150;53.514;9.988;2023-11-19T05:33:46;12.80;;;8.13;;
14139;SDS011;7150;53.514;9.988;2023-11-19T05:36:12;12.63;;;8.27;;
14139;SDS011;7150;53.514;9.988;2023-11-19T05:38:37;13.70;;;7.77;;
14139;SDS011;7150;53.514;9.988;2023-11-19T05:41:03;14.57;;;8.30;;
14139;SDS011;7150;53.514;9.988;2023-11-19T05:43:32;12.03;;;7.37;;
14139;SDS011;7150;53.514;9.988;2023-11-19T05:45:58;11.90;;;8.53;;
14139;SDS011;7150;53.514;9.988;2023-11-19T05:48:25;17.17;;;9.10;;
14139;SDS011;7150;53.514;9.988;2023-11-19T05:50:51;16.03;;;8.27;;
14139;SDS011;7150;53.514;9.988;2023-11-19T05:53:17;14.80;;;7.87;;
14139;SDS011;7150;53.514;9.988;2023-11-19T05:55:42;13.93;;;7.87;;
14139;SDS011;7150;53.514;9.988;2023-11-19T05:58:14;21.57;;;8.97;;
14139;SDS011;7150;53.514;9.988;2023-11-19T06:00:40;14.43;;;7.50;;
14139;SDS011;7150;53.514;9.988;2023-11-19T06:03:09;14.73;;;8.10;;
14139;SDS011;7150;53.514;9.988;2023-11-19T06:05:34;13.50;;;7.10;;
14139;SDS011;7150;53.514;9.988;2023-11-19T06:08:00;13.60;;;7.80;;
14139;SDS011;7150;53.514;9.988;2023-11-19T06:10:26;14.00;;;7.00;;
14139;SDS011;7150;53.514;9.988;2023-11-19T06:12:59;15.47;;;7.43;;
14139;SDS011;7150;53.514;9.988;2023-11-19T06:15:25;19.60;;;8.90;;
14139;SDS011;7150;53.514;9.988;2023-11-19T06:17:52;20.13;;;8.20;;
14139;SDS011;7150;53.514;9.988;2023-11-19T06:20:17;15.87;;;8.03;;
14139;SDS011;7150;53.514;9.988;2023-11-19T06:22:44;17.40;;;7.73;;
14139;SDS011;7150;53.514;9.988;2023-11-19T06:25:10;15.63;;;7.90;;
14139;SDS011;7150;53.514;9.988;2023-11-19T06:27:36;17.50;;;7.27;;
14139;SDS011;7150;53.514;9.988;2023-11-19T06:30:02;13.90;;;7.23;;
14139;SDS011;7150;53.514;9.988;2023-11-19T06:32:27;18.93;;;6.57;;
14139;SDS011;7150;53.514;9.988;2023-11-19T06:34:53;19.10;;;7.53;;
14139;SDS011;7150;53.514;9.988;2023-11-19T06:37:19;19.17;;;7.07;;
14139;SDS011;7150;53.514;9.988;2023-11-19T06:39:45;16.07;;;6.40;;
14139;SDS011;7150;53.514;9.988;2023-11-19T06:42:10;15.20;;;6.73;;
14139;SDS011;7150;53.514;9.988;2023-11-19T06:44:36;14.17;;;6.70;;
14139;SDS011;7150;53.514;9.988;2023-11-19T06:47:01;18.83;;;6.47;;
14139;SDS011;7150;53.514;9.988;2023-11-19T06:49:27;18.20;;;6.63;;
14139;SDS011;7150;53.514;9.988;2023-11-19T06:51:52;18.17;;;6.70;;
14139;SDS011;7150;53.514;9.988;2023-11-19T06:54:18;15.83;;;6.13;;
14139;SDS011;7150;53.514;9.988;2023-11-19T06:56:43;16.50;;;6.17;;
14139;SDS011;7150;53.514;9.988;2023-11-19T06:59:09;16.73;;;6.40;;
14139;SDS011;7150;53.514;9.988;2023-11-19T07:01:35;23.87;;;6.90;;
14139;SDS011;7150;53.514;9.988;2023-11-19T07:04:01;16.23;;;5.77;;
14139;SDS011;7150;53.514;9.988;2023-11-19T07:06:33;15.67;;;5.73;;
14139;SDS011;7150;53.514;9.988;2023-11-19T07:08:58;14.50;;;5.30;;
14139;SDS011;7150;53.514;9.988;2023-11-19T07:11:24;13.30;;;5.00;;
14139;SDS011;7150;53.514;9.988;2023-11-19T07:13:49;12.77;;;5.40;;
14139;SDS011;7150;53.514;9.988;2023-11-19T07:16:15;16.60;;;5.43;;
14139;SDS011;7150;53.514;9.988;2023-11-19T07:18:40;20.60;;;5.93;;
14139;SDS011;7150;53.514;9.988;2023-11-19T07:21:08;20.27;;;6.63;;
14139;SDS011;7150;53.514;9.988;2023-11-19T07:23:35;15.07;;;5.27;;
14139;SDS011;7150;53.514;9.988;2023-11-19T07:26:01;14.20;;;4.90;;
14139;SDS011;7150;53.514;9.988;2023-11-19T07:28:29;14.10;;;4.77;;
14139;SDS011;7150;53.514;9.988;2023-11-19T07:30:54;13.20;;;5.30;;
14139;SDS011;7150;53.514;9.988;2023-11-19T07:33:21;13.23;;;4.40;;
14139;SDS011;7150;53.514;9.988;2023-11-19T07:35:46;14.83;;;4.37;;
14139;SDS011;7150;53.514;9.988;2023-11-19T07:38:12;19.53;;;5.60;;
14139;SDS011;7150;53.514;9.988;2023-11-19T07:40:38;16.87;;;4.60;;
14139;SDS011;7150;53.514;9.988;2023-11-19T07:43:03;15.10;;;4.67;;
14139;SDS011;7150;53.514;9.988;2023-11-19T07:45:29;13.73;;;5.20;;
14139;SDS011;7150;53.514;9.988;2023-11-19T07:47:54;18.40;;;5.40;;
14139;SDS011;7150;53.514;9.988;2023-11-19T07:50:20;20.43;;;5.43;;
14139;SDS011;7150;53.514;9.988;2023-11-19T07:52:45;22.67;;;5.40;;
14139;SDS011;7150;53.514;9.988;2023-11-19T07:55:11;17.57;;;5.30;;
14139;SDS011;7150;53.514;9.988;2023-11-19T07:57:37;18.80;;;4.73;;
14139;SDS011;7150;53.514;9.988;2023-11-19T08:00:02;24.63;;;5.47;;
14139;SDS011;7150;53.514;9.988;2023-11-19T08:02:29;20.80;;;5.13;;
14139;SDS011;7150;53.514;9.988;2023-11-19T08:04:54;16.17;;;4.33;;
14139;SDS011;7150;53.514;9.988;2023-11-19T08:07:20;21.73;;;5.10;;
14139;SDS011;7150;53.514;9.988;2023-11-19T08:09:47;21.20;;;5.07;;
14139;SDS011;7150;53.514;9.988;2023-11-19T08:12:12;23.63;;;5.07;;
14139;SDS011;7150;53.514;9.988;2023-11-19T08:14:40;29.07;;;5.53;;
14139;SDS011;7150;53.514;9.988;2023-11-19T08:17:06;17.90;;;4.93;;
14139;SDS011;7150;53.514;9.988;2023-11-19T08:19:32;19.33;;;3.93;;
14139;SDS011;7150;53.514;9.988;2023-11-19T08:21:57;16.57;;;4.17;;
14139;SDS011;7150;53.514;9.988;2023-11-19T08:24:23;22.60;;;4.63;;
14139;SDS011;7150;53.514;9.988;2023-11-19T08:26:48;22.77;;;4.37;;
14139;SDS011;7150;53.514;9.988;2023-11-19T08:29:14;16.17;;;4.67;;
14139;SDS011;7150;53.514;9.988;2023-11-19T08:31:39;21.67;;;4.47;;
14139;SDS011;7150;53.514;9.988;2023-11-19T08:34:05;29.17;;;4.83;;
14139;SDS011;7150;53.514;9.988;2023-11-19T08:36:33;23.37;;;5.13;;
14139;SDS011;7150;53.514;9.988;2023-11-19T08:38:59;26.20;;;4.93;;
14139;SDS011;7150;53.514;9.988;2023-11-19T08:41:25;22.70;;;5.53;;
14139;SDS011;7150;53.514;9.988;2023-11-19T08:43:51;25.00;;;4.73;;
14139;SDS011;7150;53.514;9.988;2023-11-19T08:46:16;18.80;;;4.80;;
14139;SDS011;7150;53.514;9.988;2023-11-19T08:48:42;19.40;;;5.07;;
14139;SDS011;7150;53.514;9.988;2023-11-19T08:51:08;17.53;;;4.90;;
14139;SDS011;7150;53.514;9.988;2023-11-19T08:53:34;18.00;;;4.53;;
14139;SDS011;7150;53.514;9.988;2023-11-19T08:55:59;23.23;;;4.90;;
14139;SDS011;7150;53.514;9.988;2023-11-19T08:58:25;18.77;;;4.57;;
14139;SDS011;7150;53.514;9.988;2023-11-19T09:00:51;17.97;;;4.77;;
14139;SDS011;7150;53.514;9.988;2023-11-19T09:03:19;24.70;;;6.00;;
14139;SDS011;7150;53.514;9.988;2023-11-19T09:05:45;20.23;;;5.00;;
14139;SDS011;7150;53.514;9.988;2023-11-19T09:08:11;30.60;;;4.90;;
14139;SDS011;7150;53.514;9.988;2023-11-19T09:10:36;21.80;;;4.47;;
14139;SDS011;7150;53.514;9.988;2023-11-19T09:13:02;28.60;;;5.70;;
14139;SDS011;7150;53.514;9.988;2023-11-19T09:15:28;21.40;;;4.73;;
14139;SDS011;7150;53.514;9.988;2023-11-19T09:17:54;27.17;;;5.63;;
14139;SDS011;7150;53.514;9.988;2023-11-19T09:20:19;26.47;;;4.53;;
14139;SDS011;7150;53.514;9.988;2023-11-19T09:22:45;27.93;;;4.63;;
14139;SDS011;7150;53.514;9.988;2023-11-19T09:25:11;28.70;;;4.97;;
14139;SDS011;7150;53.514;9.988;2023-11-19T09:27:41;26.13;;;4.57;;
14139;SDS011;7150;53.514;9.988;2023-11-19T09:30:07;20.33;;;5.13;;
14139;SDS011;7150;53.514;9.988;2023-11-19T09:32:33;24.00;;;5.23;;
14139;SDS011;7150;53.514;9.988;2023-11-19T09:34:58;20.03;;;5.10;;
14139;SDS011;7150;53.514;9.988;2023-11-19T09:37:25;19.80;;;4.87;;
14139;SDS011;7150;53.514;9.988;2023-11-19T09:39:50;22.43;;;5.00;;
14139;SDS011;7150;53.514;9.988;2023-11-19T09:42:16;28.10;;;5.93;;
14139;SDS011;7150;53.514;9.988;2023-11-19T09:44:42;25.77;;;4.47;;
14139;SDS011;7150;53.514;9.988;2023-11-19T09:47:08;23.30;;;4.97;;
14139;SDS011;7150;53.514;9.988;2023-11-19T09:49:36;26.67;;;6.53;;
14139;SDS011;7150;53.514;9.988;2023-11-19T09:52:02;23.20;;;4.70;;
14139;SDS011;7150;53.514;9.988;2023-11-19T09:54:28;31.40;;;5.77;;
14139;SDS011;7150;53.514;9.988;2023-11-19T09:56:53;22.47;;;4.50;;
14139;SDS011;7150;53.514;9.988;2023-11-19T09:59:24;27.10;;;5.80;;
14139;SDS011;7150;53.514;9.988;2023-11-19T10:01:50;23.67;;;5.30;;
14139;SDS011;7150;53.514;9.988;2023-11-19T10:04:16;21.90;;;5.23;;
14139;SDS011;7150;53.514;9.988;2023-11-19T10:06:43;19.63;;;4.57;;
14139;SDS011;7150;53.514;9.988;2023-11-19T10:09:09;31.47;;;5.60;;
14139;SDS011;7150;53.514;9.988;2023-11-19T10:11:36;24.57;;;5.30;;
14139;SDS011;7150;53.514;9.988;2023-11-19T10:14:02;28.63;;;5.67;;
14139;SDS011;7150;53.514;9.988;2023-11-19T10:16:28;21.37;;;4.93;;
14139;SDS011;7150;53.514;9.988;2023-11-19T10:18:55;21.77;;;5.53;;
14139;SDS011;7150;53.514;9.988;2023-11-19T10:21:20;29.47;;;5.73;;
14139;SDS011;7150;53.514;9.988;2023-11-19T10:23:47;21.60;;;5.50;;
14139;SDS011;7150;53.514;9.988;2023-11-19T10:26:17;20.30;;;5.40;;
14139;SDS011;7150;53.514;9.988;2023-11-19T10:28:45;30.20;;;5.23;;
14139;SDS011;7150;53.514;9.988;2023-11-19T10:31:14;27.10;;;4.87;;
14139;SDS011;7150;53.514;9.988;2023-11-19T10:33:41;26.13;;;5.57;;
14139;SDS011;7150;53.514;9.988;2023-11-19T10:36:09;18.70;;;4.73;;
14139;SDS011;7150;53.514;9.988;2023-11-19T10:38:37;20.03;;;4.80;;
14139;SDS011;7150;53.514;9.988;2023-11-19T10:41:03;24.73;;;4.50;;
14139;SDS011;7150;53.514;9.988;2023-11-19T10:43:30;23.30;;;4.50;;
14139;SDS011;7150;53.514;9.988;2023-11-19T10:46:08;19.13;;;4.60;;
14139;SDS011;7150;53.514;9.988;2023-11-19T10:48:35;23.77;;;6.17;;
14139;SDS011;7150;53.514;9.988;2023-11-19T10:51:00;21.17;;;4.50;;
14139;SDS011;7150;53.514;9.988;2023-11-19T10:53:29;27.37;;;6.33;;
14139;SDS011;7150;53.514;9.988;2023-11-19T10:55:55;20.57;;;5.27;;
14139;SDS011;7150;53.514;9.988;2023-11-19T10:58:24;28.93;;;5.27;;
14139;SDS011;7150;53.514;9.988;2023-11-19T11:00:52;25.13;;;4.43;;
14139;SDS011;7150;53.514;9.988;2023-11-19T11:03:21;21.03;;;4.33;;
14139;SDS011;7150;53.514;9.988;2023-11-19T11:05:50;26.30;;;5.00;;
14139;SDS011;7150;53.514;9.988;2023-11-19T11:08:16;22.97;;;5.00;;
14139;SDS011;7150;53.514;9.988;2023-11-19T11:10:43;17.47;;;3.93;;
14139;SDS011;7150;53.514;9.988;2023-11-19T11:13:10;21.17;;;4.33;;
14139;SDS011;7150;53.514;9.988;2023-11-19T11:15:38;24.33;;;4.73;;
14139;SDS011;7150;53.514;9.988;2023-11-19T11:18:04;24.33;;;5.07;;
14139;SDS011;7150;53.514;9.988;2023-11-19T11:20:33;24.13;;;4.43;;
14139;SDS011;7150;53.514;9.988;2023-11-19T11:31:06;18.87;;;4.97;;
14139;SDS011;7150;53.514;9.988;2023-11-19T11:34:05;21.10;;;5.10;;
14139;SDS011;7150;53.514;9.988;2023-11-19T11:39:57;15.77;;;4.37;;
14139;SDS011;7150;53.514;9.988;2023-11-19T11:45:01;21.10;;;4.90;;
14139;SDS011;7150;53.514;9.988;2023-11-19T11:50:16;26.67;;;4.87;;
14139;SDS011;7150;53.514;9.988;2023-11-19T11:55:37;24.70;;;5.40;;
14139;SDS011;7150;53.514;9.988;2023-11-19T11:58:20;23.60;;;5.20;;
14139;SDS011;7150;53.514;9.988;2023-11-19T12:00:49;22.57;;;4.93;;
14139;SDS011;7150;53.514;9.988;2023-11-19T12:03:18;23.73;;;4.40;;
14139;SDS011;7150;53.514;9.988;2023-11-19T12:05:47;22.90;;;4.20;;
14139;SDS011;7150;53.514;9.988;2023-11-19T12:08:13;16.73;;;4.50;;
14139;SDS011;7150;53.514;9.988;2023-11-19T12:10:46;24.73;;;4.73;;
14139;SDS011;7150;53.514;9.988;2023-11-19T12:13:13;19.63;;;4.70;;
14139;SDS011;7150;53.514;9.988;2023-11-19T12:18:27;17.77;;;3.60;;
14139;SDS011;7150;53.514;9.988;2023-11-19T12:20:57;17.47;;;4.80;;
14139;SDS011;7150;53.514;9.988;2023-11-19T12:23:27;20.63;;;4.47;;
14139;SDS011;7150;53.514;9.988;2023-11-19T12:25:54;18.27;;;4.30;;
14139;SDS011;7150;53.514;9.988;2023-11-19T12:28:20;16.40;;;4.67;;
14139;SDS011;7150;53.514;9.988;2023-11-19T12:30:45;26.17;;;4.77;;
14139;SDS011;7150;53.514;9.988;2023-11-19T12:33:13;16.70;;;4.57;;
14139;SDS011;7150;53.514;9.988;2023-11-19T12:35:40;22.23;;;4.57;;
14139;SDS011;7150;53.514;9.988;2023-11-19T12:38:20;22.73;;;4.10;;
14139;SDS011;7150;53.514;9.988;2023-11-19T12:40:46;20.30;;;4.17;;
14139;SDS011;7150;53.514;9.988;2023-11-19T12:43:21;19.60;;;4.00;;
14139;SDS011;7150;53.514;9.988;2023-11-19T12:45:47;25.23;;;4.40;;
14139;SDS011;7150;53.514;9.988;2023-11-19T12:48:13;18.77;;;3.73;;
14139;SDS011;7150;53.514;9.988;2023-11-19T12:50:57;19.23;;;4.60;;
14139;SDS011;7150;53.514;9.988;2023-11-19T12:53:24;17.53;;;4.57;;
14139;SDS011;7150;53.514;9.988;2023-11-19T12:55:51;24.40;;;4.83;;
14139;SDS011;7150;53.514;9.988;2023-11-19T13:01:03;26.73;;;4.80;;
14139;SDS011;7150;53.514;9.988;2023-11-19T13:03:30;22.37;;;4.40;;
14139;SDS011;7150;53.514;9.988;2023-11-19T13:06:03;21.03;;;4.53;;
14139;SDS011;7150;53.514;9.988;2023-11-19T13:08:40;28.13;;;3.97;;
14139;SDS011;7150;53.514;9.988;2023-11-19T13:11:10;19.60;;;4.80;;
14139;SDS011;7150;53.514;9.988;2023-11-19T13:16:36;19.90;;;4.30;;
14139;SDS011;7150;53.514;9.988;2023-11-19T13:19:03;16.70;;;4.10;;
14139;SDS011;7150;53.514;9.988;2023-11-19T13:21:29;17.23;;;4.57;;
14139;SDS011;7150;53.514;9.988;2023-11-19T13:23:55;16.33;;;4.10;;
14139;SDS011;7150;53.514;9.988;2023-11-19T13:26:21;22.40;;;5.10;;
14139;SDS011;7150;53.514;9.988;2023-11-19T13:28:47;21.73;;;4.73;;
14139;SDS011;7150;53.514;9.988;2023-11-19T13:31:12;21.83;;;5.33;;
14139;SDS011;7150;53.514;9.988;2023-11-19T13:33:38;19.47;;;4.33;;
14139;SDS011;7150;53.514;9.988;2023-11-19T13:36:04;17.13;;;3.97;;
14139;SDS011;7150;53.514;9.988;2023-11-19T13:38:35;17.20;;;4.30;;
14139;SDS011;7150;53.514;9.988;2023-11-19T13:41:02;19.40;;;4.57;;
14139;SDS011;7150;53.514;9.988;2023-11-19T13:43:29;15.37;;;4.07;;
14139;SDS011;7150;53.514;9.988;2023-11-19T13:45:55;21.47;;;4.70;;
14139;SDS011;7150;53.514;9.988;2023-11-19T13:48:21;15.07;;;4.10;;
14139;SDS011;7150;53.514;9.988;2023-11-19T13:50:47;17.33;;;4.03;;
14139;SDS011;7150;53.514;9.988;2023-11-19T13:53:12;22.63;;;4.50;;
14139;SDS011;7150;53.514;9.988;2023-11-19T13:55:38;21.50;;;4.27;;
14139;SDS011;7150;53.514;9.988;2023-11-19T13:58:03;21.43;;;4.53;;
14139;SDS011;7150;53.514;9.988;2023-11-19T14:00:29;30.07;;;5.43;;
14139;SDS011;7150;53.514;9.988;2023-11-19T14:02:55;24.57;;;5.60;;
14139;SDS011;7150;53.514;9.988;2023-11-19T14:05:20;14.50;;;4.10;;
14139;SDS011;7150;53.514;9.988;2023-11-19T14:07:46;17.97;;;4.50;;
14139;SDS011;7150;53.514;9.988;2023-11-19T14:10:13;23.53;;;4.57;;
14139;SDS011;7150;53.514;9.988;2023-11-19T14:12:40;18.40;;;4.27;;
14139;SDS011;7150;53.514;9.988;2023-11-19T14:15:06;17.97;;;4.53;;
14139;SDS011;7150;53.514;9.988;2023-11-19T14:17:33;17.30;;;4.17;;
14139;SDS011;7150;53.514;9.988;2023-11-19T14:19:59;21.53;;;3.93;;
14139;SDS011;7150;53.514;9.988;2023-11-19T14:22:25;17.10;;;3.97;;
14139;SDS011;7150;53.514;9.988;2023-11-19T14:24:50;16.13;;;4.00;;
14139;SDS011;7150;53.514;9.988;2023-11-19T14:27:16;19.17;;;4.03;;
14139;SDS011;7150;53.514;9.988;2023-11-19T14:29:44;22.63;;;4.83;;
14139;SDS011;7150;53.514;9.988;2023-11-19T14:32:10;25.00;;;5.67;;
14139;SDS011;7150;53.514;9.988;2023-11-19T14:34:36;16.17;;;4.30;;
14139;SDS011;7150;53.514;9.988;2023-11-19T14:37:01;16.63;;;3.83;;
14139;SDS011;7150;53.514;9.988;2023-11-19T14:39:27;22.77;;;4.43;;
14139;SDS011;7150;53.514;9.988;2023-11-19T14:41:54;13.90;;;3.67;;
14139;SDS011;7150;53.514;9.988;2023-11-19T14:44:22;15.90;;;3.57;;
14139;SDS011;7150;53.514;9.988;2023-11-19T14:46:49;20.50;;;4.10;;
14139;SDS011;7150;53.514;9.988;2023-11-19T14:49:14;17.07;;;3.77;;
14139;SDS011;7150;53.514;9.988;2023-11-19T14:51:40;21.63;;;3.90;;
14139;SDS011;7150;53.514;9.988;2023-11-19T14:54:05;14.23;;;3.60;;
14139;SDS011;7150;53.514;9.988;2023-11-19T14:56:31;12.20;;;3.40;;
14139;SDS011;7150;53.514;9.988;2023-11-19T14:58:57;14.40;;;3.87;;
14139;SDS011;7150;53.514;9.988;2023-11-19T15:01:23;16.73;;;3.93;;
14139;SDS011;7150;53.514;9.988;2023-11-19T15:03:49;16.20;;;4.50;;
14139;SDS011;7150;53.514;9.988;2023-11-19T15:06:15;17.73;;;3.73;;
14139;SDS011;7150;53.514;9.988;2023-11-19T15:08:41;12.87;;;3.20;;
14139;SDS011;7150;53.514;9.988;2023-11-19T15:11:06;14.20;;;3.80;;
14139;SDS011;7150;53.514;9.988;2023-11-19T15:13:34;14.13;;;3.77;;
14139;SDS011;7150;53.514;9.988;2023-11-19T15:16:02;17.57;;;4.00;;
14139;SDS011;7150;53.514;9.988;2023-11-19T15:18:30;15.37;;;3.87;;